Terminal Aerodrome Forecast
Issued by NWS

Home | Current Version | Previous Version | Graphics & Text | Print | Product List | Glossary On
Versions: 1 2 3 4 5 6 7 8 9 10 11 12 13 14 15 16
000
FTUS43 KMPX 222300
TAFAXN
TAF
KAXN 222339Z 2300/2324 12008KT P6SM SCT100 BKN200
     FM230900 13012KT P6SM BKN060
     FM231200 13016G24KT 5SM -SHRA BR SCT030 OVC050
     FM231800 13022G30KT 4SM -RA BR OVC030=

USA.gov is the U.S. government's official web portal to all federal, state and local government web resources and services.